createdAt,value
2022-08-05T00:00:12.955Z,23.51
2022-08-05T00:02:43.896Z,23.90
2022-08-05T00:06:02.817Z,23.71
2022-08-05T00:08:05.365Z,23.71
2022-08-05T00:10:51.843Z,23.54
2022-08-05T00:13:19.802Z,23.68
2022-08-05T00:15:56.413Z,23.23
2022-08-05T00:18:25.051Z,23.25
2022-08-05T00:20:52.185Z,22.45
2022-08-05T00:23:31.064Z,23.40
2022-08-05T00:26:07.459Z,23.50
2022-08-05T00:28:35.094Z,23.64
2022-08-05T00:31:04.431Z,23.59
2022-08-05T00:34:53.477Z,23.90
2022-08-05T00:37:10.544Z,23.61
2022-08-05T00:39:13.336Z,23.92
2022-08-05T00:41:51.640Z,24.13
2022-08-05T00:44:30.937Z,24.53
2022-08-05T00:47:01.589Z,25.31
2022-08-05T00:49:32.830Z,25.37
2022-08-05T00:52:10.934Z,25.58
2022-08-05T00:54:38.776Z,25.64
2022-08-05T00:57:05.422Z,25.85
2022-08-05T00:59:34.686Z,26.04
2022-08-05T01:02:11.557Z,25.64
2022-08-05T01:04:38.208Z,25.91
2022-08-05T01:07:13.530Z,25.78
2022-08-05T01:09:41.799Z,26.00
2022-08-05T01:12:18.418Z,25.85
2022-08-05T01:14:52.021Z,26.07
2022-08-05T01:17:44.107Z,25.94
2022-08-05T01:20:13.822Z,26.00
2022-08-05T01:22:52.601Z,25.99
2022-08-05T01:25:53.360Z,25.98
2022-08-05T01:28:37.177Z,25.97
2022-08-05T01:31:53.758Z,25.32
2022-08-05T01:34:26.860Z,25.95
2022-08-05T01:37:02.778Z,25.73
2022-08-05T01:39:46.903Z,25.91
2022-08-05T01:42:17.228Z,25.80
2022-08-05T01:44:54.279Z,25.80
2022-08-05T01:47:24.371Z,25.47
2022-08-05T01:50:14.997Z,25.89
2022-08-05T01:52:50.078Z,25.62
2022-08-05T01:55:20.272Z,25.88
2022-08-05T01:58:12.869Z,25.69
2022-08-05T02:00:39.563Z,25.57
2022-08-05T02:03:34.191Z,25.87
2022-08-05T02:06:37.264Z,25.88
2022-08-05T02:08:57.829Z,25.83
2022-08-05T02:11:33.494Z,25.90
2022-08-05T02:14:27.602Z,25.63
2022-08-05T02:16:56.791Z,25.64
2022-08-05T02:19:28.109Z,25.59
2022-08-05T02:22:03.492Z,25.59
2022-08-05T02:24:37.938Z,25.60
2022-08-05T02:27:10.058Z,25.63
2022-08-05T02:29:59.810Z,25.66
2022-08-05T02:32:31.381Z,25.40
2022-08-05T02:35:13.424Z,25.63
2022-08-05T02:37:43.137Z,25.43
2022-08-05T02:40:17.115Z,25.50
2022-08-05T02:42:53.928Z,25.53
2022-08-05T02:45:52.596Z,25.41
2022-08-05T02:48:28.977Z,25.34
2022-08-05T02:50:59.983Z,25.15
2022-08-05T02:53:29.365Z,25.24
2022-08-05T02:56:09.418Z,25.25
2022-08-05T02:58:43.711Z,25.02
2022-08-05T03:01:15.836Z,25.10
2022-08-05T03:04:02.720Z,25.12
2022-08-05T03:06:55.503Z,25.14
2022-08-05T03:09:27.122Z,25.10
2022-08-05T03:12:05.730Z,25.21
2022-08-05T03:14:32.474Z,25.24
2022-08-05T03:17:00.068Z,25.11
2022-08-05T03:19:33.941Z,25.23
2022-08-05T03:22:01.360Z,25.28
2022-08-05T03:24:30.635Z,25.04
2022-08-05T03:26:59.911Z,25.12
2022-08-05T03:29:45.894Z,24.99
2022-08-05T03:32:15.427Z,25.16
2022-08-05T03:34:51.272Z,24.95
2022-08-05T03:37:19.509Z,24.80
2022-08-05T03:40:01.403Z,24.84
2022-08-05T03:42:32.162Z,24.74
2022-08-05T03:44:59.519Z,24.69
2022-08-05T03:47:30.541Z,24.84
2022-08-05T03:50:02.273Z,24.88
2022-08-05T03:54:59.971Z,24.66
2022-08-05T03:56:09.697Z,24.64
2022-08-05T03:58:17.785Z,24.62
2022-08-05T04:00:46.507Z,24.63
2022-08-05T04:03:28.554Z,24.58
2022-08-05T04:05:57.751Z,24.60
2022-08-05T04:08:34.869Z,24.69
2022-08-05T04:11:05.085Z,24.61
2022-08-05T04:13:50.389Z,24.73
2022-08-05T04:16:25.209Z,24.92
2022-08-05T04:19:00.162Z,24.97
2022-08-05T04:22:09.578Z,24.90
2022-08-05T04:24:19.189Z,24.90
2022-08-05T04:26:49.674Z,25.03
2022-08-05T04:29:16.937Z,25.10
2022-08-05T04:31:43.571Z,25.00
2022-08-05T04:34:31.573Z,25.06
2022-08-05T04:36:57.078Z,25.21
2022-08-05T04:39:23.769Z,25.11
2022-08-05T04:41:50.958Z,25.01
2022-08-05T04:44:21.203Z,24.93
2022-08-05T04:46:57.595Z,25.16
2022-08-05T04:49:38.584Z,25.05
2022-08-05T04:52:12.639Z,25.08
2022-08-05T04:54:39.278Z,25.24
2022-08-05T04:57:05.947Z,25.30
2022-08-05T04:59:40.594Z,25.13
2022-08-05T05:02:36.358Z,25.32
2022-08-05T05:05:01.865Z,25.23
2022-08-05T05:07:32.445Z,25.28
2022-08-05T05:10:02.311Z,25.33
2022-08-05T05:12:50.606Z,25.10
2022-08-05T05:15:57.927Z,24.90
2022-08-05T05:18:04.942Z,25.07
2022-08-05T05:20:32.791Z,24.84
2022-08-05T05:23:08.091Z,24.95
2022-08-05T05:26:01.184Z,25.01
2022-08-05T05:28:27.841Z,24.95
2022-08-05T05:30:56.071Z,24.97
2022-08-05T05:33:23.648Z,24.84
2022-08-05T05:35:50.555Z,24.76
2022-08-05T05:38:27.243Z,24.74
2022-08-05T05:40:56.110Z,24.82
2022-08-05T05:43:54.109Z,24.98
2022-08-05T05:46:17.371Z,25.08
2022-08-05T05:48:46.062Z,25.28
2022-08-05T05:51:22.241Z,25.14
2022-08-05T05:53:57.522Z,25.19
2022-08-05T05:56:33.370Z,25.26
2022-08-05T05:59:06.532Z,25.42
2022-08-05T06:01:38.061Z,25.74
2022-08-05T06:04:11.745Z,25.92
2022-08-05T06:06:47.617Z,25.98
2022-08-05T06:09:24.952Z,26.10
2022-08-05T06:12:01.321Z,26.03
2022-08-05T06:14:32.352Z,26.26
2022-08-05T06:17:02.207Z,26.01
2022-08-05T06:19:56.689Z,26.23
2022-08-05T06:22:28.632Z,26.15
2022-08-05T06:24:55.625Z,26.03
2022-08-05T06:28:11.136Z,25.77
2022-08-05T06:30:17.900Z,25.63
2022-08-05T06:32:48.226Z,25.71
2022-08-05T06:36:03.447Z,25.67
2022-08-05T06:38:08.332Z,25.60
2022-08-05T06:40:38.252Z,25.61
2022-08-05T06:43:58.092Z,25.63
2022-08-05T06:46:04.017Z,25.63
2022-08-05T06:48:52.920Z,25.75
2022-08-05T06:51:29.062Z,25.44
2022-08-05T06:54:02.363Z,25.71
2022-08-05T06:56:34.601Z,25.82
2022-08-05T06:59:03.321Z,25.95
2022-08-05T07:01:32.580Z,25.88
2022-08-05T07:04:03.012Z,25.85
2022-08-05T07:06:30.467Z,25.79
2022-08-05T07:08:59.555Z,26.03
2022-08-05T07:11:31.079Z,25.81
2022-08-05T07:14:28.730Z,26.01
2022-08-05T07:17:59.113Z,26.78
2022-08-05T07:22:34.331Z,27.69
2022-08-05T07:25:21.780Z,28.18
2022-08-05T07:27:58.421Z,28.19
2022-08-05T07:30:38.150Z,27.91
2022-08-05T07:33:09.428Z,27.90
2022-08-05T07:36:04.000Z,27.69
2022-08-05T07:38:32.284Z,27.50
2022-08-05T07:42:09.069Z,27.78
2022-08-05T07:44:00.284Z,27.60
2022-08-05T07:46:29.278Z,27.46
2022-08-05T07:49:01.878Z,27.96
2022-08-05T07:51:36.930Z,28.17
2022-08-05T07:54:05.982Z,28.60
2022-08-05T07:57:00.837Z,28.09
2022-08-05T07:59:31.090Z,27.50
2022-08-05T08:02:16.028Z,28.18
2022-08-05T08:04:46.355Z,28.82
2022-08-05T08:07:14.106Z,29.10
2022-08-05T08:09:42.193Z,29.16
2022-08-05T08:12:20.242Z,29.72
2022-08-05T08:14:55.861Z,29.74
2022-08-05T08:17:23.701Z,29.83
2022-08-05T08:20:44.657Z,29.77
2022-08-05T08:23:03.232Z,30.00
2022-08-05T08:26:00.870Z,30.53
2022-08-05T08:28:18.932Z,31.10
2022-08-05T08:31:04.374Z,31.49
2022-08-05T08:33:37.548Z,31.51
2022-08-05T08:38:56.163Z,30.69
2022-08-05T08:41:51.873Z,29.51
2022-08-05T08:45:23.562Z,28.88
2022-08-05T08:47:47.370Z,28.70
2022-08-05T08:50:31.261Z,29.58
2022-08-05T08:53:03.385Z,29.47
2022-08-05T08:56:04.313Z,30.90
2022-08-05T08:58:43.574Z,31.25
2022-08-05T09:01:16.251Z,31.06
2022-08-05T09:03:54.567Z,31.14
2022-08-05T09:06:28.225Z,31.13
2022-08-05T09:08:58.193Z,30.87
2022-08-05T09:11:51.697Z,30.20
2022-08-05T09:14:56.989Z,29.87
2022-08-05T09:17:41.790Z,29.82
2022-08-05T09:20:36.633Z,29.81
2022-08-05T09:23:19.730Z,29.65
2022-08-05T09:25:59.913Z,31.02
2022-08-05T09:28:31.935Z,31.75
2022-08-05T09:31:22.094Z,33.27
2022-08-05T09:34:05.646Z,33.23
2022-08-05T09:36:55.859Z,32.47
2022-08-05T09:39:41.362Z,32.53
2022-08-05T09:42:23.642Z,32.70
2022-08-05T09:44:56.135Z,32.78
2022-08-05T09:47:48.096Z,32.60
2022-08-05T09:50:18.052Z,32.87
2022-08-05T09:53:01.518Z,33.43
2022-08-05T09:55:56.143Z,33.09
2022-08-05T09:58:22.744Z,32.58
2022-08-05T10:00:57.305Z,32.54
2022-08-05T10:03:24.877Z,32.77
2022-08-05T10:06:15.419Z,32.81
2022-08-05T10:08:53.936Z,32.61
2022-08-05T10:11:22.929Z,32.35
2022-08-05T10:13:54.572Z,32.00
2022-08-05T10:16:41.721Z,31.67
2022-08-05T10:19:23.616Z,31.44
2022-08-05T10:22:08.986Z,32.03
2022-08-05T10:24:42.342Z,32.25
2022-08-05T10:27:14.866Z,31.98
2022-08-05T10:30:41.912Z,32.50
2022-08-05T10:32:54.069Z,33.01
2022-08-05T10:35:17.991Z,32.96
2022-08-05T10:37:46.815Z,32.53
2022-08-05T10:40:57.807Z,32.47
2022-08-05T10:43:45.798Z,32.69
2022-08-05T10:46:14.594Z,33.15
2022-08-05T10:48:57.012Z,33.16
2022-08-05T10:51:29.242Z,33.89
2022-08-05T10:54:00.949Z,33.72
2022-08-05T10:56:45.824Z,33.31
2022-08-05T11:00:02.127Z,32.85
2022-08-05T11:02:34.706Z,32.90
2022-08-05T11:04:59.425Z,33.37
2022-08-05T11:07:33.197Z,33.41
2022-08-05T11:10:23.015Z,33.04
2022-08-05T11:12:55.970Z,33.11
2022-08-05T11:15:23.974Z,33.34
2022-08-05T11:18:27.219Z,33.33
2022-08-05T11:20:57.166Z,33.64
2022-08-05T11:23:33.444Z,33.78
2022-08-05T11:26:32.517Z,34.01
2022-08-05T11:29:43.048Z,33.17
2022-08-05T11:32:30.024Z,33.34
2022-08-05T11:34:57.531Z,33.14
2022-08-05T11:38:29.336Z,33.72
2022-08-05T11:41:35.359Z,34.04
2022-08-05T11:44:53.379Z,34.06
2022-08-05T11:47:22.136Z,34.16
2022-08-05T11:50:08.476Z,34.47
2022-08-05T11:52:35.208Z,34.82
2022-08-05T11:55:07.362Z,34.18
2022-08-05T11:57:48.530Z,34.13
2022-08-05T12:00:31.346Z,34.38
2022-08-05T12:02:58.775Z,34.20
2022-08-05T12:05:32.367Z,34.59
2022-08-05T12:08:09.560Z,34.66
2022-08-05T12:10:45.352Z,34.79
2022-08-05T12:13:28.172Z,34.79
2022-08-05T12:16:14.974Z,34.60
2022-08-05T12:18:48.642Z,34.33
2022-08-05T12:21:22.752Z,34.22
2022-08-05T12:24:04.228Z,34.19
2022-08-05T12:26:40.894Z,34.66
2022-08-05T12:29:16.294Z,34.96
2022-08-05T12:31:53.083Z,35.06
2022-08-05T12:34:25.741Z,34.33
2022-08-05T12:36:53.617Z,34.66
2022-08-05T12:39:22.058Z,35.22
2022-08-05T12:41:50.624Z,35.25
2022-08-05T12:44:33.893Z,34.36
2022-08-05T12:47:02.206Z,33.66
2022-08-05T12:50:03.316Z,33.21
2022-08-05T12:52:38.606Z,32.55
2022-08-05T12:55:23.758Z,32.50
2022-08-05T12:58:49.716Z,32.70
2022-08-05T13:02:02.674Z,32.38
2022-08-05T13:03:41.389Z,32.14
2022-08-05T13:06:12.560Z,31.76
2022-08-05T13:08:40.004Z,31.06
2022-08-05T13:11:07.934Z,31.95
2022-08-05T13:14:04.929Z,32.24
2022-08-05T13:16:27.985Z,32.31
2022-08-05T13:18:59.458Z,32.96
2022-08-05T13:21:27.794Z,32.83
2022-08-05T13:24:06.232Z,32.81
2022-08-05T13:26:35.794Z,32.30
2022-08-05T13:29:02.717Z,32.23
2022-08-05T13:31:33.916Z,32.25
2022-08-05T13:34:24.964Z,32.24
2022-08-05T13:36:54.031Z,31.98
2022-08-05T13:39:24.757Z,32.16
2022-08-05T13:42:14.010Z,32.46
2022-08-05T13:44:45.495Z,32.01
2022-08-05T13:47:35.501Z,31.40
2022-08-05T13:50:04.451Z,31.32
2022-08-05T13:52:35.586Z,31.44
2022-08-05T13:55:07.271Z,31.53
2022-08-05T13:57:50.886Z,31.57
2022-08-05T14:00:27.205Z,31.32
2022-08-05T14:02:56.549Z,31.63
2022-08-05T14:05:48.518Z,31.65
2022-08-05T14:08:20.232Z,30.63
2022-08-05T14:10:48.939Z,30.65
2022-08-05T14:13:16.128Z,30.28
2022-08-05T14:16:04.465Z,30.42
2022-08-05T14:18:30.374Z,30.51
2022-08-05T14:20:57.083Z,30.63
2022-08-05T14:23:33.619Z,31.01
2022-08-05T14:26:38.641Z,31.02
2022-08-05T14:29:16.589Z,30.82
2022-08-05T14:32:02.950Z,30.70
2022-08-05T14:34:35.456Z,31.05
2022-08-05T14:37:04.109Z,31.29
2022-08-05T14:39:49.546Z,31.57
2022-08-05T14:42:19.540Z,31.95
2022-08-05T14:44:48.661Z,31.34
2022-08-05T14:47:15.443Z,30.95
2022-08-05T14:49:58.529Z,31.05
2022-08-05T14:52:51.735Z,30.99
2022-08-05T14:55:15.630Z,30.83
2022-08-05T14:57:56.255Z,30.53
2022-08-05T15:00:27.929Z,30.55
2022-08-05T15:02:55.418Z,30.04
2022-08-05T15:05:22.357Z,30.16
2022-08-05T15:08:05.341Z,29.79
2022-08-05T15:10:43.482Z,29.76
2022-08-05T15:13:12.934Z,29.85
2022-08-05T15:15:55.018Z,29.91
2022-08-05T15:18:23.276Z,30.18
2022-08-05T15:20:49.969Z,29.94
2022-08-05T15:23:18.163Z,30.18
2022-08-05T15:25:52.869Z,30.25
2022-08-05T15:28:26.971Z,30.17
2022-08-05T15:30:54.937Z,30.30
2022-08-05T15:33:56.574Z,30.27
2022-08-05T15:36:17.301Z,30.03
2022-08-05T15:38:50.962Z,29.85
2022-08-05T15:41:58.352Z,29.86
2022-08-05T15:44:24.643Z,29.74
2022-08-05T15:46:52.596Z,29.82
2022-08-05T15:49:27.288Z,29.83
2022-08-05T15:52:16.353Z,29.76
2022-08-05T15:54:53.369Z,29.46
2022-08-05T15:57:20.745Z,29.14
2022-08-05T15:59:47.400Z,29.33
2022-08-05T16:02:27.666Z,29.13
2022-08-05T16:04:55.481Z,29.12
2022-08-05T16:07:22.853Z,29.03
2022-08-05T16:09:49.738Z,29.32
2022-08-05T16:12:17.344Z,29.25
2022-08-05T16:14:46.865Z,28.92
2022-08-05T16:17:13.788Z,28.72
2022-08-05T16:20:04.959Z,28.62
2022-08-05T16:22:33.795Z,28.62
2022-08-05T16:25:08.182Z,28.63
2022-08-05T16:28:00.093Z,28.56
2022-08-05T16:30:26.664Z,28.25
2022-08-05T16:32:55.695Z,28.16
2022-08-05T16:35:27.784Z,27.99
2022-08-05T16:38:15.486Z,27.93
2022-08-05T16:40:52.128Z,27.98
2022-08-05T16:43:25.060Z,27.83
2022-08-05T16:46:05.783Z,27.74
2022-08-05T16:48:39.437Z,27.58
2022-08-05T16:51:08.969Z,27.47
2022-08-05T16:54:02.562Z,27.38
2022-08-05T16:56:29.848Z,27.43
2022-08-05T16:58:57.879Z,27.20
2022-08-05T17:01:24.770Z,27.16
2022-08-05T17:03:52.125Z,27.10
2022-08-05T17:06:19.870Z,27.33
2022-08-05T17:08:53.478Z,27.33
2022-08-05T17:11:23.874Z,27.48
2022-08-05T17:14:05.361Z,27.34
2022-08-05T17:16:37.905Z,27.29
2022-08-05T17:19:07.093Z,27.38
2022-08-05T17:21:36.418Z,27.24
2022-08-05T17:24:19.443Z,27.96
2022-08-05T17:26:56.504Z,29.54
2022-08-05T17:29:33.302Z,29.73
2022-08-05T17:32:11.502Z,29.98
2022-08-05T17:34:43.694Z,29.97
2022-08-05T17:37:37.704Z,29.50
2022-08-05T17:39:57.415Z,28.90
2022-08-05T17:42:32.014Z,27.95
2022-08-05T17:45:18.123Z,27.42
2022-08-05T17:47:53.020Z,26.90
2022-08-05T17:50:29.689Z,26.66
2022-08-05T17:53:02.633Z,26.36
2022-08-05T17:55:37.912Z,26.21
2022-08-05T17:58:12.237Z,25.90
2022-08-05T18:00:47.612Z,26.20
2022-08-05T18:03:59.393Z,26.17
2022-08-05T18:06:11.715Z,26.16
2022-08-05T18:08:52.141Z,26.12
2022-08-05T18:11:24.053Z,26.04
2022-08-05T18:14:04.179Z,25.90
2022-08-05T18:16:32.685Z,25.85
2022-08-05T18:18:59.420Z,25.58
2022-08-05T18:22:07.581Z,25.80
2022-08-05T18:24:12.899Z,25.78
2022-08-05T18:26:41.276Z,25.78
2022-08-05T18:29:10.572Z,25.73
2022-08-05T18:31:37.244Z,25.60
2022-08-05T18:34:12.268Z,25.50
2022-08-05T18:36:41.140Z,25.64
2022-08-05T18:39:22.349Z,25.17
2022-08-05T18:42:04.734Z,25.43
2022-08-05T18:44:49.202Z,25.38
2022-08-05T18:47:22.748Z,25.27
2022-08-05T18:50:12.054Z,25.04
2022-08-05T18:52:41.762Z,24.92
2022-08-05T18:55:19.291Z,24.72
2022-08-05T18:57:53.492Z,24.55
2022-08-05T19:00:28.714Z,24.86
2022-08-05T19:03:03.570Z,24.65
2022-08-05T19:06:12.801Z,24.66
2022-08-05T19:08:19.441Z,24.50
2022-08-05T19:10:50.221Z,24.52
2022-08-05T19:13:17.460Z,24.41
2022-08-05T19:16:00.064Z,24.67
2022-08-05T19:18:30.701Z,24.17
2022-08-05T19:20:59.396Z,24.56
2022-08-05T19:24:06.757Z,24.54
2022-08-05T19:26:14.106Z,24.21
2022-08-05T19:28:44.536Z,24.49
2022-08-05T19:31:17.688Z,24.31
2022-08-05T19:33:55.678Z,24.23
2022-08-05T19:36:25.881Z,24.35
2022-08-05T19:39:00.602Z,24.09
2022-08-05T19:42:05.330Z,24.19
2022-08-05T19:44:17.270Z,24.08
2022-08-05T19:46:45.956Z,23.99
2022-08-05T19:49:17.062Z,23.53
2022-08-05T19:52:08.924Z,24.15
2022-08-05T19:54:32.984Z,24.17
2022-08-05T19:57:06.513Z,24.08
2022-08-05T19:59:55.306Z,24.31
2022-08-05T20:02:23.106Z,24.09
2022-08-05T20:04:50.190Z,24.31
2022-08-05T20:07:46.662Z,23.97
2022-08-05T20:10:13.468Z,23.53
2022-08-05T20:12:48.284Z,23.76
2022-08-05T20:15:48.516Z,23.79
2022-08-05T20:18:10.652Z,23.32
2022-08-05T20:21:08.983Z,23.76
2022-08-05T20:23:50.786Z,23.73
2022-08-05T20:26:21.972Z,23.55
2022-08-05T20:28:55.900Z,23.27
2022-08-05T20:31:28.748Z,23.17
2022-08-05T20:34:10.601Z,23.39
2022-08-05T20:36:39.018Z,22.47
2022-08-05T20:39:19.113Z,23.35
2022-08-05T20:41:49.144Z,23.48
2022-08-05T20:44:30.385Z,23.04
2022-08-05T20:46:59.384Z,23.11
2022-08-05T20:49:27.196Z,23.20
2022-08-05T20:51:58.144Z,23.15
2022-08-05T20:54:59.504Z,22.96
2022-08-05T20:57:42.243Z,22.93
2022-08-05T21:00:21.094Z,22.86
2022-08-05T21:03:00.186Z,22.78
2022-08-05T21:05:54.615Z,22.66
2022-08-05T21:08:26.522Z,22.73
2022-08-05T21:11:00.287Z,22.73
2022-08-05T21:13:55.994Z,22.74
2022-08-05T21:16:19.173Z,22.71
2022-08-05T21:18:46.114Z,22.35
2022-08-05T21:21:12.995Z,22.40
2022-08-05T21:23:39.803Z,22.40
2022-08-05T21:26:14.365Z,22.44
2022-08-05T21:28:47.940Z,22.31
2022-08-05T21:31:26.191Z,22.32
2022-08-05T21:34:07.679Z,21.94
2022-08-05T21:36:34.393Z,22.29
2022-08-05T21:39:01.217Z,22.17
2022-08-05T21:41:32.936Z,22.19
2022-08-05T21:44:04.487Z,22.34
2022-08-05T21:46:34.230Z,22.33
2022-08-05T21:49:07.304Z,22.08
2022-08-05T21:52:27.113Z,22.49
2022-08-05T21:54:27.693Z,22.47
2022-08-05T21:57:29.242Z,22.38
2022-08-05T22:00:02.117Z,22.70
2022-08-05T22:02:28.301Z,22.38
2022-08-05T22:04:58.152Z,22.44
2022-08-05T22:07:40.469Z,22.38
2022-08-05T22:10:14.360Z,22.54
2022-08-05T22:12:44.891Z,22.09
2022-08-05T22:16:01.097Z,22.04
2022-08-05T22:18:05.706Z,22.16
2022-08-05T22:20:32.668Z,22.15
2022-08-05T22:23:21.532Z,22.16
2022-08-05T22:26:10.711Z,21.97
2022-08-05T22:28:38.760Z,21.99
2022-08-05T22:31:06.289Z,22.09
2022-08-05T22:33:56.326Z,22.24
2022-08-05T22:36:19.787Z,22.33
2022-08-05T22:38:52.114Z,22.43
2022-08-05T22:42:05.462Z,22.44
2022-08-05T22:44:08.495Z,22.40
2022-08-05T22:46:39.714Z,22.24
2022-08-05T22:49:12.207Z,22.11
2022-08-05T22:52:06.136Z,22.00
2022-08-05T22:54:36.205Z,21.95
2022-08-05T22:57:06.947Z,21.62
2022-08-05T22:59:45.331Z,21.94
2022-08-05T23:02:18.316Z,22.15
2022-08-05T23:04:52.039Z,21.85
2022-08-05T23:07:21.993Z,21.94
2022-08-05T23:09:58.376Z,21.93
2022-08-05T23:12:32.894Z,21.80
2022-08-05T23:15:08.733Z,21.88
2022-08-05T23:17:59.711Z,21.86
2022-08-05T23:20:24.411Z,22.09
2022-08-05T23:22:55.610Z,22.19
2022-08-05T23:25:51.905Z,22.17
2022-08-05T23:28:10.270Z,21.62
2022-08-05T23:30:39.948Z,21.98
2022-08-05T23:33:16.335Z,22.20
2022-08-05T23:35:50.459Z,22.35
2022-08-05T23:38:17.363Z,22.19
2022-08-05T23:40:49.920Z,22.06
2022-08-05T23:43:25.843Z,22.06
2022-08-05T23:46:20.997Z,21.84
2022-08-05T23:49:01.228Z,21.86
2022-08-05T23:51:54.343Z,21.63
2022-08-05T23:54:30.234Z,21.66
2022-08-05T23:57:03.939Z,21.74
